Terminal Aerodrome Forecast
Issued by NWS Jackson, KY

Home | Current Version | Previous Version | Text Only | Print | Product List | Glossary On
Versions: 1 2 3 4 5 6 7 8 9 10 11 12 13 14
147
FTUS43 KJKL 290201 AAA
TAFLOZ
TAF AMD
KLOZ 290201Z 2902/2924 25004KT P6SM BKN050
     FM290500 26004KT P6SM BKN030
     FM290800 VRB03KT P6SM BKN015
     FM291300 VRB03KT P6SM SCT015
     FM291800 27004KT P6SM SCT140=

USA.gov is the U.S. government's official web portal to all federal, state and local government web resources and services.